createdAt,value
2023-05-01T00:03:37.969Z,1.23
2023-05-01T00:08:39.464Z,0.90
2023-05-01T00:13:41.068Z,1.10
2023-05-01T00:18:42.417Z,1.30
2023-05-01T00:23:43.803Z,0.90
2023-05-01T00:28:45.208Z,0.88
2023-05-01T00:33:46.589Z,0.90
2023-05-01T00:38:48.064Z,1.52
2023-05-01T00:43:49.394Z,2.05
2023-05-01T00:48:52.106Z,1.42
2023-05-01T00:53:54.044Z,0.80
2023-05-01T00:58:56.229Z,1.58
2023-05-01T01:03:57.697Z,1.35
2023-05-01T01:09:29.026Z,2.47
2023-05-01T01:14:56.643Z,1.17
2023-05-01T01:20:23.580Z,1.33
2023-05-01T01:25:41.596Z,1.00
2023-05-01T01:30:51.885Z,1.25
2023-05-01T01:36:07.108Z,1.40
2023-05-01T01:41:33.105Z,2.05
2023-05-01T01:46:39.387Z,1.40
2023-05-01T01:51:41.856Z,1.75
2023-05-01T01:56:45.239Z,1.75
2023-05-01T02:01:49.158Z,2.13
2023-05-01T02:06:52.015Z,2.42
2023-05-01T02:11:57.565Z,2.03
2023-05-01T02:16:59.516Z,2.03
2023-05-01T02:22:02.811Z,2.35
2023-05-01T02:27:09.434Z,3.40
2023-05-01T02:32:10.846Z,3.03
2023-05-01T02:37:12.516Z,3.30
2023-05-01T02:42:16.438Z,3.22
2023-05-01T02:47:21.367Z,3.22
2023-05-01T02:52:23.194Z,2.90
2023-05-01T02:57:25.056Z,3.53
2023-05-01T03:02:26.730Z,3.70
2023-05-01T03:07:34.843Z,3.05
2023-05-01T03:12:36.182Z,4.28
2023-05-01T03:17:37.522Z,3.05
2023-05-01T03:22:39.969Z,3.20
2023-05-01T03:27:41.573Z,3.08
2023-05-01T03:32:42.997Z,3.33
2023-05-01T03:37:44.388Z,2.83
2023-05-01T03:42:45.758Z,3.13
2023-05-01T03:47:47.131Z,3.03
2023-05-01T03:52:48.519Z,3.05
2023-05-01T03:57:49.907Z,3.78
2023-05-01T04:02:51.461Z,2.85
2023-05-01T04:07:52.880Z,3.60
2023-05-01T04:12:54.204Z,3.72
2023-05-01T04:17:56.699Z,3.90
2023-05-01T04:22:58.081Z,2.95
2023-05-01T04:27:59.481Z,2.85
2023-05-01T04:33:01.783Z,2.80
2023-05-01T04:38:03.185Z,3.65
2023-05-01T04:43:04.501Z,3.00
2023-05-01T04:48:06.473Z,3.33
2023-05-01T04:53:08.690Z,3.42
2023-05-01T04:58:10.019Z,2.55
2023-05-01T05:03:11.487Z,3.33
2023-05-01T05:08:12.936Z,2.80
2023-05-01T05:13:14.255Z,2.65
2023-05-01T05:18:15.626Z,3.03
2023-05-01T05:23:17.022Z,3.10
2023-05-01T05:28:18.412Z,2.50
2023-05-01T05:33:19.995Z,2.65
2023-05-01T05:38:21.722Z,2.33
2023-05-01T05:43:24.953Z,2.85
2023-05-01T05:48:27.796Z,2.10
2023-05-01T05:53:29.239Z,2.10
2023-05-01T05:58:30.770Z,1.83
2023-05-01T06:03:32.790Z,2.42
2023-05-01T06:08:36.340Z,1.92
2023-05-01T06:13:37.683Z,1.63
2023-05-01T06:18:39.137Z,2.47
2023-05-01T06:23:40.472Z,2.08
2023-05-01T06:28:41.836Z,1.98
2023-05-01T06:33:43.179Z,1.92
2023-05-01T06:38:48.639Z,1.95
2023-05-01T06:43:50.070Z,2.58
2023-05-01T06:48:51.400Z,1.73
2023-05-01T06:53:52.768Z,2.83
2023-05-01T06:58:54.129Z,2.00
2023-05-01T07:03:55.470Z,1.95
2023-05-01T07:08:56.793Z,2.03
2023-05-01T07:13:58.203Z,1.95
2023-05-01T07:18:59.685Z,1.98
2023-05-01T07:24:01.038Z,2.20
2023-05-01T07:29:03.022Z,2.28
2023-05-01T07:34:04.768Z,2.42
2023-05-01T07:39:06.723Z,2.50
2023-05-01T07:44:08.158Z,2.47
2023-05-01T07:49:09.539Z,2.30
2023-05-01T07:54:10.881Z,2.22
2023-05-01T07:59:12.229Z,1.77
2023-05-01T08:04:14.441Z,2.65
2023-05-01T08:09:16.581Z,2.55
2023-05-01T08:14:18.341Z,2.90
2023-05-01T08:19:19.679Z,2.17
2023-05-01T08:24:21.066Z,2.50
2023-05-01T08:29:22.520Z,2.83
2023-05-01T08:34:24.093Z,3.63
2023-05-01T08:39:25.544Z,2.50
2023-05-01T08:44:28.772Z,2.47
2023-05-01T08:49:33.601Z,2.13
2023-05-01T08:54:36.812Z,2.80
2023-05-01T08:59:39.280Z,2.95
2023-05-01T09:04:41.737Z,3.33
2023-05-01T09:09:43.644Z,2.50
2023-05-01T09:14:45.434Z,2.67
2023-05-01T09:19:47.774Z,2.20
2023-05-01T09:24:49.639Z,2.20
2023-05-01T09:29:50.985Z,3.08
2023-05-01T09:34:52.466Z,4.65
2023-05-01T09:40:08.748Z,2.90
2023-05-01T09:45:14.686Z,2.87
2023-05-01T09:50:33.173Z,2.65
2023-05-01T09:55:34.727Z,3.00
2023-05-01T10:00:48.437Z,3.20
2023-05-01T10:05:50.054Z,3.63
2023-05-01T10:11:04.447Z,3.50
2023-05-01T10:16:08.349Z,2.83
2023-05-01T10:21:10.690Z,2.78
2023-05-01T10:26:13.859Z,2.65
2023-05-01T10:31:16.612Z,3.20
2023-05-01T10:36:23.129Z,2.72
2023-05-01T10:41:58.257Z,2.22
2023-05-01T10:46:59.703Z,2.80
2023-05-01T10:52:03.563Z,3.30
2023-05-01T10:57:06.474Z,3.00
2023-05-01T11:02:22.134Z,2.38
2023-05-01T11:07:23.986Z,2.70
2023-05-01T11:12:51.680Z,2.15
2023-05-01T11:17:53.248Z,1.73
2023-05-01T11:22:57.030Z,2.03
2023-05-01T11:28:01.048Z,1.92
2023-05-01T11:33:02.551Z,2.63
2023-05-01T11:38:03.953Z,1.50
2023-05-01T11:43:06.915Z,3.83
2023-05-01T11:48:16.395Z,2.67
2023-05-01T11:53:18.554Z,2.42
2023-05-01T11:58:31.958Z,1.70
2023-05-01T12:03:42.445Z,1.83
2023-05-01T12:08:47.377Z,1.77
2023-05-01T12:13:50.226Z,1.20
2023-05-01T12:18:52.917Z,1.60
2023-05-01T12:23:59.947Z,1.50
2023-05-01T12:29:06.663Z,1.15
2023-05-01T12:34:08.185Z,1.95
2023-05-01T12:39:14.329Z,1.70
2023-05-01T12:44:19.598Z,2.00
2023-05-01T12:49:22.504Z,2.23
2023-05-01T12:54:43.265Z,1.30
2023-05-01T12:59:46.860Z,1.23
2023-05-01T13:04:49.680Z,1.00
2023-05-01T13:09:59.333Z,0.95
2023-05-01T13:15:01.148Z,1.50
2023-05-01T13:20:04.863Z,1.10
2023-05-01T13:25:17.190Z,1.63
2023-05-01T13:30:22.010Z,1.05
2023-05-01T13:35:24.902Z,1.52
2023-05-01T13:40:27.628Z,1.20
2023-05-01T13:45:29.011Z,1.20
2023-05-01T13:50:30.551Z,1.08
2023-05-01T13:55:32.557Z,1.30
2023-05-01T14:00:34.069Z,1.30
2023-05-01T14:05:36.602Z,1.08
2023-05-01T14:10:38.404Z,1.35
2023-05-01T14:15:43.764Z,0.88
2023-05-01T14:20:47.305Z,1.63
2023-05-01T14:25:49.328Z,1.73
2023-05-01T14:30:51.288Z,1.15
2023-05-01T14:35:53.659Z,1.60
2023-05-01T14:40:55.242Z,1.27
2023-05-01T14:45:56.823Z,1.67
2023-05-01T14:50:59.352Z,1.50
2023-05-01T14:56:00.922Z,1.20
2023-05-01T15:01:02.610Z,1.27
2023-05-01T15:06:04.292Z,1.50
2023-05-01T15:11:05.921Z,1.77
2023-05-01T15:16:08.203Z,1.20
2023-05-01T15:21:09.717Z,1.67
2023-05-01T15:26:11.288Z,1.30
2023-05-01T15:31:12.742Z,1.05
2023-05-01T15:36:14.258Z,1.35
2023-05-01T15:41:18.300Z,1.45
2023-05-01T15:46:22.877Z,1.40
2023-05-01T15:51:25.827Z,1.30
2023-05-01T15:56:27.468Z,1.60
2023-05-01T16:01:32.337Z,1.27
2023-05-01T16:06:35.043Z,0.93
2023-05-01T16:11:36.569Z,1.13
2023-05-01T16:16:41.113Z,1.38
2023-05-01T16:21:42.731Z,1.23
2023-05-01T16:26:44.282Z,1.10
2023-05-01T16:31:47.465Z,1.45
2023-05-01T16:36:49.058Z,1.48
2023-05-01T16:41:51.663Z,1.42
2023-05-01T16:47:01.069Z,1.45
2023-05-01T16:52:04.214Z,1.25
2023-05-01T16:57:05.980Z,1.20
2023-05-01T17:02:07.916Z,1.23
2023-05-01T17:07:09.545Z,1.30
2023-05-01T17:12:11.003Z,2.60
2023-05-01T17:17:12.501Z,1.42
2023-05-01T17:22:14.489Z,2.10
2023-05-01T17:27:16.266Z,2.13
2023-05-01T17:32:33.055Z,1.90
2023-05-01T17:37:39.786Z,1.65
2023-05-01T17:42:41.861Z,2.10
2023-05-01T17:47:44.875Z,1.70
2023-05-01T17:52:46.305Z,1.80
2023-05-01T17:57:47.838Z,2.00
2023-05-01T18:02:49.334Z,1.80
2023-05-01T18:07:50.858Z,2.67
2023-05-01T18:12:52.566Z,3.47
2023-05-01T18:17:54.036Z,1.98
2023-05-01T18:22:55.515Z,1.70
2023-05-01T18:27:57.451Z,1.52
2023-05-01T18:32:58.995Z,2.03
2023-05-01T18:38:00.411Z,3.80
2023-05-01T18:43:03.068Z,2.20
2023-05-01T18:48:05.008Z,2.53
2023-05-01T18:53:06.476Z,1.70
2023-05-01T18:58:07.979Z,2.08
2023-05-01T19:03:09.523Z,1.73
2023-05-01T19:08:11.023Z,2.08
2023-05-01T19:13:12.638Z,1.40
2023-05-01T19:18:16.039Z,1.15
2023-05-01T19:23:17.542Z,0.93
2023-05-01T19:28:19.185Z,1.13
2023-05-01T19:33:20.722Z,0.80
2023-05-01T19:38:22.192Z,0.70
2023-05-01T19:43:23.614Z,1.50
2023-05-01T19:48:25.253Z,1.02
2023-05-01T19:53:28.377Z,0.68
2023-05-01T19:58:29.907Z,1.00
2023-05-01T20:03:31.633Z,1.02
2023-05-01T20:08:33.779Z,0.90
2023-05-01T20:13:36.764Z,0.90
2023-05-01T20:18:38.174Z,0.90
2023-05-01T20:23:40.188Z,0.90
2023-05-01T20:28:41.746Z,1.30
2023-05-01T20:33:43.184Z,0.75
2023-05-01T20:38:46.282Z,0.90
2023-05-01T20:43:47.830Z,0.98
2023-05-01T20:48:49.370Z,0.90
2023-05-01T20:53:51.230Z,0.80
2023-05-01T20:58:53.267Z,0.90
2023-05-01T21:03:55.438Z,0.90
2023-05-01T21:09:00.554Z,0.80
2023-05-01T21:14:02.383Z,0.80
2023-05-01T21:19:03.795Z,0.85
2023-05-01T21:24:07.795Z,0.90
2023-05-01T21:29:09.700Z,1.15
2023-05-01T21:34:11.168Z,0.80
2023-05-01T21:39:12.894Z,0.90
2023-05-01T21:44:14.658Z,0.90
2023-05-01T21:49:18.483Z,1.00
2023-05-01T21:54:21.512Z,1.55
2023-05-01T21:59:23.179Z,1.50
2023-05-01T22:04:24.511Z,0.90
2023-05-01T22:09:25.996Z,0.85
2023-05-01T22:14:36.688Z,0.73
2023-05-01T22:19:47.900Z,0.90
2023-05-01T22:24:49.235Z,0.70
2023-05-01T22:29:50.654Z,0.88
2023-05-01T22:34:51.985Z,1.02
2023-05-01T22:39:53.887Z,1.08
2023-05-01T22:44:55.236Z,0.93
2023-05-01T22:49:56.653Z,1.08
2023-05-01T22:54:58.278Z,0.90
2023-05-01T22:59:59.786Z,1.20
2023-05-01T23:05:01.684Z,1.00
2023-05-01T23:10:03.386Z,1.88
2023-05-01T23:15:08.746Z,2.60
2023-05-01T23:20:15.519Z,2.42
2023-05-01T23:25:22.911Z,2.33
2023-05-01T23:30:24.471Z,2.78
2023-05-01T23:35:25.941Z,2.92
2023-05-01T23:40:27.432Z,2.83
2023-05-01T23:45:28.784Z,3.17
2023-05-01T23:50:30.330Z,3.97
2023-05-01T23:55:31.645Z,3.40
